Ana Sayfa
METAR-TAF:

METAR-TAF

Havaalanları :

Mykonos, Yunanistan

Enlem: 37-26-09N, Boylam: 025-20-45E, yükseklik: 123 m

Güncel hava durumu gözlemi

Rapor saat 08:20 UTC de 14 dakika önce yapıldı.
Rüzgar kuzeydan 13 kt
Sıcaklık 20°C
Nem 73%
Basınç 1016 hPa
Görüş mesafesi 10 km veya daha fazla
1600 ft yükseklikte az bulutlu

METAR: LGMK 220820Z 36013KT 9999 FEW016 20/15 Q1016

Saat: 11:34 (08:34 UTC)

Tahmin

Rapor saat 08:00 UTC de 34 dakika önce yapıldı.
Ayın 22'si saat 09 UTC'den ayın 22'si saat 18 UTC'ye kadar geçerli Tahmin
Rüzgar kuzeydan 15 kt
Görüş mesafesi: 9000 m
1500 ft yükseklikte az bulutlu

TAF: LGMK 220800Z 2209/2218 36015KT 9000 FEW015

4.000'den fazla havaalanı için hava durumu gözlemleri ve tahminleri (METAR ve TAF raporları).

Kullanılabilir istasyonlar harita üzerinde sarı ve kırmızı noktalarla gösterilir.

İstasyonun adını görmek için fareyi noktanın üzerinde gezdirin.

Sonrasında hava gözlem ve tahminlerini görmek için tıklayın.

Haritayı değiştirmek için: yaklaştırmak için siyah artı işaretli yeşil düğmeye ve uzaklaştırmak için de eksi işaretli düğmeye hızla tıklayın; bitişik haritalar için yeşil okları kullanın.


METAR-TAF: